createdAt,value
2017-11-18T00:00:55.984Z,0
2017-11-18T00:01:55.956Z,0
2017-11-18T00:02:56.011Z,0
2017-11-18T00:03:55.930Z,0
2017-11-18T00:04:56.211Z,0
2017-11-18T00:05:56.197Z,0
2017-11-18T00:06:56.148Z,0
2017-11-18T00:07:55.873Z,0
2017-11-18T00:08:55.569Z,0
2017-11-18T00:09:56.099Z,0
2017-11-18T00:10:56.085Z,0
2017-11-18T00:11:55.531Z,0
2017-11-18T00:12:56.056Z,0
2017-11-18T00:13:55.485Z,0
2017-11-18T00:14:55.743Z,0
2017-11-18T00:15:56.026Z,0
2017-11-18T00:16:55.712Z,0
2017-11-18T00:17:55.420Z,0
2017-11-18T00:18:55.405Z,0
2017-11-18T00:19:55.782Z,0
2017-11-18T00:20:55.676Z,0
2017-11-18T00:21:55.526Z,0
2017-11-18T00:22:55.345Z,0
2017-11-18T00:23:55.631Z,0
2017-11-18T00:24:55.629Z,0
2017-11-18T00:25:55.584Z,0
2017-11-18T00:26:55.284Z,0
2017-11-18T00:27:56.148Z,0
2017-11-18T00:28:55.252Z,0
2017-11-18T00:29:55.782Z,0
2017-11-18T00:30:55.770Z,0
2017-11-18T00:31:55.475Z,0
2017-11-18T00:32:55.461Z,0
2017-11-18T00:33:55.181Z,0
2017-11-18T00:34:55.449Z,0
2017-11-18T00:35:55.422Z,0
2017-11-18T00:36:55.400Z,0
2017-11-18T00:37:55.381Z,0
2017-11-18T00:38:55.388Z,0
2017-11-18T00:39:55.359Z,0
2017-11-18T00:40:55.297Z,0
2017-11-18T00:41:55.342Z,0
2017-11-18T00:42:55.586Z,0
2017-11-18T00:43:55.294Z,0
2017-11-18T00:44:55.029Z,0
2017-11-18T00:45:55.813Z,0
2017-11-18T00:46:55.242Z,0
2017-11-18T00:47:55.246Z,0
2017-11-18T00:48:54.933Z,0
2017-11-18T00:49:54.926Z,0
2017-11-18T00:50:54.901Z,0
2017-11-18T00:51:54.889Z,0
2017-11-18T00:52:54.871Z,0
2017-11-18T00:53:55.140Z,0
2017-11-18T00:54:55.123Z,0
2017-11-18T00:55:55.102Z,0
2017-11-18T00:56:55.095Z,0
2017-11-18T00:57:55.079Z,0
2017-11-18T00:58:55.101Z,0
2017-11-18T00:59:55.043Z,0
2017-11-18T01:00:55.311Z,0
2017-11-18T01:01:55.293Z,0
2017-11-18T01:02:55.009Z,0
2017-11-18T01:03:54.718Z,0
2017-11-18T01:04:54.970Z,0
2017-11-18T01:05:54.668Z,0
2017-11-18T01:06:54.929Z,0
2017-11-18T01:07:55.208Z,0
2017-11-18T01:08:54.916Z,0
2017-11-18T01:09:55.175Z,0
2017-11-18T01:10:54.590Z,0
2017-11-18T01:11:54.875Z,0
2017-11-18T01:12:55.035Z,0
2017-11-18T01:13:55.102Z,0
2017-11-18T01:14:55.370Z,0
2017-11-18T01:15:54.793Z,0
2017-11-18T01:16:54.495Z,0
2017-11-18T01:17:54.479Z,0
2017-11-18T01:18:54.746Z,0
2017-11-18T01:19:54.724Z,0
2017-11-18T01:20:54.707Z,0
2017-11-18T01:21:54.979Z,0
2017-11-18T01:22:54.955Z,0
2017-11-18T01:23:54.977Z,0
2017-11-18T01:24:54.923Z,0
2017-11-18T01:25:55.186Z,0
2017-11-18T01:26:54.354Z,0
2017-11-18T01:27:54.600Z,0
2017-11-18T01:28:54.865Z,0
2017-11-18T01:29:54.566Z,0
2017-11-18T01:30:54.291Z,0
2017-11-18T01:31:54.813Z,0
2017-11-18T01:32:54.800Z,0
2017-11-18T01:33:54.526Z,0
2017-11-18T01:34:54.499Z,0
2017-11-18T01:35:54.474Z,0
2017-11-18T01:36:54.737Z,0
2017-11-18T01:37:54.440Z,0
2017-11-18T01:38:54.171Z,0
2017-11-18T01:39:54.150Z,0
2017-11-18T01:40:54.413Z,0
2017-11-18T01:41:54.680Z,0
2017-11-18T01:42:54.374Z,0
2017-11-18T01:43:54.358Z,0
2017-11-18T01:44:54.338Z,0
2017-11-18T01:45:54.315Z,0
2017-11-18T01:46:54.594Z,0
2017-11-18T01:47:54.011Z,0
2017-11-18T01:48:54.545Z,0
2017-11-18T01:49:54.534Z,0
2017-11-18T01:50:53.982Z,0
2017-11-18T01:51:54.495Z,0
2017-11-18T01:52:54.209Z,0
2017-11-18T01:53:54.470Z,0
2017-11-18T01:54:54.458Z,0
2017-11-18T01:55:54.717Z,0
2017-11-18T01:56:54.144Z,0
2017-11-18T01:57:53.854Z,0
2017-11-18T01:58:54.408Z,0
2017-11-18T01:59:54.097Z,0
2017-11-18T02:00:54.088Z,0
2017-11-18T02:01:54.069Z,0
2017-11-18T02:02:54.327Z,0
2017-11-18T02:03:54.336Z,0
2017-11-18T02:04:54.048Z,0
2017-11-18T02:05:54.008Z,0
2017-11-18T02:06:54.019Z,0
2017-11-18T02:07:53.714Z,0
2017-11-18T02:08:53.954Z,0
2017-11-18T02:09:54.229Z,0
2017-11-18T02:10:53.936Z,0
2017-11-18T02:11:53.909Z,0
2017-11-18T02:12:54.183Z,0
2017-11-18T02:13:54.152Z,0
2017-11-18T02:14:53.865Z,0
2017-11-18T02:15:53.847Z,0
2017-11-18T02:16:54.416Z,0
2017-11-18T02:17:54.398Z,0
2017-11-18T02:18:53.798Z,0
2017-11-18T02:19:53.508Z,0
2017-11-18T02:20:54.054Z,0
2017-11-18T02:21:53.758Z,0
2017-11-18T02:22:53.758Z,0
2017-11-18T02:23:53.726Z,0
2017-11-18T02:24:53.711Z,0
2017-11-18T02:25:53.694Z,0
2017-11-18T02:26:53.398Z,0
2017-11-18T02:27:53.936Z,0
2017-11-18T02:28:53.931Z,0
2017-11-18T02:29:53.901Z,0
2017-11-18T02:30:53.616Z,0
2017-11-18T02:31:53.611Z,0
2017-11-18T02:32:53.586Z,0
2017-11-18T02:33:53.844Z,0
2017-11-18T02:34:53.552Z,0
2017-11-18T02:35:53.818Z,0
2017-11-18T02:36:53.544Z,0
2017-11-18T02:37:53.784Z,0
2017-11-18T02:38:53.517Z,0
2017-11-18T02:39:53.472Z,0
2017-11-18T02:40:53.749Z,0
2017-11-18T02:41:53.723Z,0
2017-11-18T02:42:53.150Z,0
2017-11-18T02:43:53.133Z,0
2017-11-18T02:44:53.696Z,0
2017-11-18T02:45:53.404Z,0
2017-11-18T02:46:53.386Z,0
2017-11-18T02:47:53.390Z,0
2017-11-18T02:48:53.335Z,0
2017-11-18T02:49:53.038Z,0
2017-11-18T02:50:53.318Z,0
2017-11-18T02:51:53.300Z,0
2017-11-18T02:52:53.270Z,0
2017-11-18T02:53:53.307Z,0
2017-11-18T02:54:52.964Z,0
2017-11-18T02:55:52.969Z,0
2017-11-18T02:56:53.254Z,0
2017-11-18T02:57:53.489Z,0
2017-11-18T02:58:53.183Z,0
2017-11-18T02:59:53.180Z,0
2017-11-18T03:00:53.435Z,0
2017-11-18T03:01:52.863Z,0
2017-11-18T03:02:52.836Z,0
2017-11-18T03:03:53.098Z,0
2017-11-18T03:04:52.805Z,0
2017-11-18T03:05:53.072Z,0
2017-11-18T03:06:53.052Z,0
2017-11-18T03:07:52.780Z,0
2017-11-18T03:08:52.743Z,0
2017-11-18T03:09:52.734Z,0
2017-11-18T03:10:52.713Z,0
2017-11-18T03:11:52.975Z,0
2017-11-18T03:12:52.964Z,0
2017-11-18T03:13:52.943Z,0
2017-11-18T03:14:52.650Z,0
2017-11-18T03:15:53.217Z,0
2017-11-18T03:16:52.900Z,0
2017-11-18T03:17:52.887Z,0
2017-11-18T03:18:52.879Z,0
2017-11-18T03:19:52.849Z,0
2017-11-18T03:20:52.839Z,0
2017-11-18T03:21:53.090Z,0
2017-11-18T03:22:52.809Z,0
2017-11-18T03:23:53.070Z,0
2017-11-18T03:24:52.768Z,0
2017-11-18T03:25:52.758Z,0
2017-11-18T03:26:52.466Z,0
2017-11-18T03:27:52.997Z,0
2017-11-18T03:28:52.434Z,0
2017-11-18T03:29:52.965Z,0
2017-11-18T03:30:53.851Z,0
2017-11-18T03:31:52.669Z,0
2017-11-18T03:32:52.647Z,0
2017-11-18T03:33:52.907Z,0
2017-11-18T03:34:52.616Z,0
2017-11-18T03:35:52.327Z,0
2017-11-18T03:36:52.582Z,0
2017-11-18T03:37:52.579Z,0
2017-11-18T03:38:52.573Z,0
2017-11-18T03:39:52.268Z,0
2017-11-18T03:40:52.522Z,0
2017-11-18T03:41:52.793Z,0
2017-11-18T03:42:52.816Z,0
2017-11-18T03:43:52.478Z,0
2017-11-18T03:44:52.470Z,0
2017-11-18T03:45:52.167Z,0
2017-11-18T03:46:52.428Z,0
2017-11-18T03:47:52.412Z,0
2017-11-18T03:48:52.413Z,0
2017-11-18T03:49:52.674Z,0
2017-11-18T03:50:52.643Z,0
2017-11-18T03:51:52.367Z,0
2017-11-18T03:52:52.614Z,0
2017-11-18T03:53:52.596Z,0
2017-11-18T03:54:52.308Z,0
2017-11-18T03:55:52.565Z,0
2017-11-18T03:56:52.552Z,0
2017-11-18T03:57:52.537Z,0
2017-11-18T03:58:52.254Z,0
2017-11-18T03:59:52.501Z,0
2017-11-18T04:00:52.209Z,0
2017-11-18T04:01:52.212Z,0
2017-11-18T04:02:51.901Z,0
2017-11-18T04:03:52.466Z,0
2017-11-18T04:04:52.757Z,0
2017-11-18T04:05:52.128Z,0
2017-11-18T04:06:51.844Z,0
2017-11-18T04:07:52.113Z,0
2017-11-18T04:08:52.639Z,0
2017-11-18T04:09:51.790Z,0
2017-11-18T04:10:52.338Z,0
2017-11-18T04:11:52.067Z,0
2017-11-18T04:12:51.743Z,0
2017-11-18T04:13:52.036Z,0
2017-11-18T04:14:52.288Z,0
2017-11-18T04:15:51.976Z,0
2017-11-18T04:16:51.955Z,0
2017-11-18T04:17:51.941Z,0
2017-11-18T04:18:51.925Z,0
2017-11-18T04:19:52.206Z,0
2017-11-18T04:20:51.917Z,0
2017-11-18T04:21:52.161Z,0
2017-11-18T04:22:52.140Z,0
2017-11-18T04:23:51.844Z,0
2017-11-18T04:24:52.113Z,0
2017-11-18T04:25:52.115Z,0
2017-11-18T04:26:51.532Z,0
2017-11-18T04:27:51.777Z,0
2017-11-18T04:28:51.771Z,0
2017-11-18T04:29:51.772Z,0
2017-11-18T04:30:52.025Z,0
2017-11-18T04:31:52.006Z,0
2017-11-18T04:32:51.988Z,0
2017-11-18T04:33:51.408Z,0
2017-11-18T04:34:51.962Z,0
2017-11-18T04:35:51.674Z,0
2017-11-18T04:36:51.639Z,0
2017-11-18T04:37:51.344Z,0
2017-11-18T04:38:51.606Z,0
2017-11-18T04:39:51.612Z,0
2017-11-18T04:40:51.851Z,0
2017-11-18T04:41:51.592Z,0
2017-11-18T04:42:51.542Z,0
2017-11-18T04:43:51.803Z,0
2017-11-18T04:44:51.509Z,0
2017-11-18T04:45:51.500Z,0
2017-11-18T04:46:51.756Z,0
2017-11-18T04:47:51.745Z,0
2017-11-18T04:48:51.721Z,0
2017-11-18T04:49:51.156Z,0
2017-11-18T04:50:51.136Z,0
2017-11-18T04:51:51.396Z,0
2017-11-18T04:52:51.391Z,0
2017-11-18T04:53:51.366Z,0
2017-11-18T04:54:51.634Z,0
2017-11-18T04:55:51.065Z,0
2017-11-18T04:56:51.601Z,0
2017-11-18T04:57:51.337Z,0
2017-11-18T04:58:51.008Z,0
2017-11-18T04:59:51.558Z,0
2017-11-18T05:00:50.993Z,0
2017-11-18T05:01:50.980Z,0
2017-11-18T05:02:51.213Z,0
2017-11-18T05:03:51.203Z,0
2017-11-18T05:04:51.471Z,0
2017-11-18T05:05:50.895Z,0
2017-11-18T05:06:51.157Z,0
2017-11-18T05:07:51.417Z,0
2017-11-18T05:08:51.119Z,0
2017-11-18T05:09:51.102Z,0
2017-11-18T05:10:51.103Z,0
2017-11-18T05:11:51.072Z,0
2017-11-18T05:12:51.054Z,0
2017-11-18T05:13:51.318Z,0
2017-11-18T05:14:51.581Z,0
2017-11-18T05:15:51.294Z,0
2017-11-18T05:16:50.986Z,0
2017-11-18T05:17:50.698Z,0
2017-11-18T05:18:50.970Z,0
2017-11-18T05:19:50.937Z,0
2017-11-18T05:20:50.925Z,0
2017-11-18T05:21:51.263Z,0
2017-11-18T05:22:51.473Z,0
2017-11-18T05:23:50.903Z,0
2017-11-18T05:24:50.587Z,0
2017-11-18T05:25:51.124Z,0
2017-11-18T05:26:50.840Z,0
2017-11-18T05:27:51.104Z,0
2017-11-18T05:28:50.795Z,0
2017-11-18T05:29:51.067Z,0
2017-11-18T05:30:50.761Z,0
2017-11-18T05:31:51.298Z,0
2017-11-18T05:32:50.728Z,0
2017-11-18T05:33:50.775Z,0
2017-11-18T05:34:50.702Z,0
2017-11-18T05:35:50.425Z,0
2017-11-18T05:36:50.665Z,0
2017-11-18T05:37:50.649Z,0
2017-11-18T05:38:50.648Z,0
2017-11-18T05:39:50.618Z,0
2017-11-18T05:40:50.337Z,0
2017-11-18T05:41:50.314Z,0
2017-11-18T05:42:50.568Z,0
2017-11-18T05:43:50.837Z,0
2017-11-18T05:44:50.276Z,0
2017-11-18T05:45:50.248Z,0
2017-11-18T05:46:50.508Z,0
2017-11-18T05:47:50.487Z,0
2017-11-18T05:48:50.473Z,0
2017-11-18T05:49:50.194Z,0
2017-11-18T05:50:50.447Z,0
2017-11-18T05:51:50.432Z,0
2017-11-18T05:52:50.129Z,0
2017-11-18T05:53:50.670Z,0
2017-11-18T05:54:50.097Z,0
2017-11-18T05:55:50.667Z,0
2017-11-18T05:56:50.644Z,0
2017-11-18T05:57:50.619Z,0
2017-11-18T05:58:50.329Z,0
2017-11-18T05:59:50.016Z,0
2017-11-18T06:00:50.576Z,0
2017-11-18T06:01:50.258Z,4
2017-11-18T06:02:49.965Z,0
2017-11-18T06:03:50.238Z,4
2017-11-18T06:04:50.512Z,4
2017-11-18T06:05:50.198Z,4
2017-11-18T06:06:50.735Z,4
2017-11-18T06:07:50.197Z,8
2017-11-18T06:08:50.436Z,8
2017-11-18T06:09:50.148Z,12
2017-11-18T06:10:50.393Z,8
2017-11-18T06:11:50.105Z,12
2017-11-18T06:12:49.806Z,16
2017-11-18T06:13:49.794Z,16
2017-11-18T06:14:49.799Z,20
2017-11-18T06:15:50.033Z,20
2017-11-18T06:16:50.578Z,28
2017-11-18T06:17:50.303Z,28
2017-11-18T06:18:49.981Z,36
2017-11-18T06:19:50.263Z,36
2017-11-18T06:20:49.969Z,44
2017-11-18T06:21:49.944Z,52
2017-11-18T06:22:49.923Z,56
2017-11-18T06:23:50.179Z,60
2017-11-18T06:24:49.885Z,72
2017-11-18T06:25:50.198Z,80
2017-11-18T06:26:50.401Z,92
2017-11-18T06:27:49.561Z,100
2017-11-18T06:28:49.552Z,112
2017-11-18T06:29:49.820Z,128
2017-11-18T06:30:49.805Z,136
2017-11-18T06:31:50.050Z,144
2017-11-18T06:32:49.481Z,156
2017-11-18T06:33:49.764Z,172
2017-11-18T06:34:49.474Z,184
2017-11-18T06:35:49.707Z,204
2017-11-18T06:36:50.253Z,204
2017-11-18T06:37:49.690Z,208
2017-11-18T06:38:49.692Z,260
2017-11-18T06:39:49.401Z,288
2017-11-18T06:40:49.943Z,320
2017-11-18T06:41:49.615Z,360
2017-11-18T06:42:49.886Z,388
2017-11-18T06:43:49.577Z,416
2017-11-18T06:44:49.849Z,444
2017-11-18T06:45:49.829Z,480
2017-11-18T06:46:50.082Z,516
2017-11-18T06:47:49.787Z,540
2017-11-18T06:48:50.044Z,548
2017-11-18T06:49:50.065Z,564
2017-11-18T06:50:49.462Z,596
2017-11-18T06:51:49.200Z,628
2017-11-18T06:52:49.725Z,664
2017-11-18T06:53:49.702Z,708
2017-11-18T06:54:49.120Z,740
2017-11-18T06:55:49.385Z,756
2017-11-18T06:56:49.383Z,788
2017-11-18T06:57:49.628Z,832
2017-11-18T06:58:49.622Z,872
2017-11-18T06:59:49.038Z,880
2017-11-18T07:00:49.320Z,896
2017-11-18T07:01:49.004Z,920
2017-11-18T07:02:49.011Z,936
2017-11-18T07:03:49.261Z,940
2017-11-18T07:04:49.519Z,952
2017-11-18T07:05:48.942Z,972
2017-11-18T07:06:48.939Z,980
2017-11-18T07:07:49.184Z,984
2017-11-18T07:08:49.722Z,976
2017-11-18T07:09:49.146Z,984
2017-11-18T07:10:49.406Z,1008
2017-11-18T07:11:48.838Z,1032
2017-11-18T07:12:49.375Z,1044
2017-11-18T07:13:49.361Z,1068
2017-11-18T07:14:48.805Z,1108
2017-11-18T07:15:49.046Z,1180
2017-11-18T07:16:49.036Z,1288
2017-11-18T07:17:49.022Z,1416
2017-11-18T07:18:49.280Z,1528
2017-11-18T07:19:48.984Z,1600
2017-11-18T07:20:49.248Z,1624
2017-11-18T07:21:48.956Z,1648
2017-11-18T07:22:49.203Z,1684
2017-11-18T07:23:48.639Z,1740
2017-11-18T07:24:48.935Z,1840
2017-11-18T07:25:48.603Z,1900
2017-11-18T07:26:48.878Z,1912
2017-11-18T07:27:48.863Z,1932
2017-11-18T07:28:49.176Z,1956
2017-11-18T07:29:49.102Z,1992
2017-11-18T07:30:48.518Z,2024
2017-11-18T07:31:48.789Z,2064
2017-11-18T07:32:48.801Z,2068
2017-11-18T07:33:48.747Z,2084
2017-11-18T07:34:48.733Z,2084
2017-11-18T07:35:48.439Z,2092
2017-11-18T07:36:49.011Z,2144
2017-11-18T07:37:48.719Z,2168
2017-11-18T07:38:48.972Z,2196
2017-11-18T07:39:48.920Z,2212
2017-11-18T07:40:48.354Z,2264
2017-11-18T07:41:48.340Z,2272
2017-11-18T07:42:48.897Z,2220
2017-11-18T07:43:48.581Z,2268
2017-11-18T07:44:48.564Z,2280
2017-11-18T07:45:48.826Z,2316
2017-11-18T07:46:48.534Z,2456
2017-11-18T07:47:48.536Z,2416
2017-11-18T07:48:48.221Z,2392
2017-11-18T07:49:48.206Z,2436
2017-11-18T07:50:48.489Z,2512
2017-11-18T07:51:48.452Z,2556
2017-11-18T07:52:48.184Z,2556
2017-11-18T07:53:48.459Z,2500
2017-11-18T07:54:48.983Z,2500
2017-11-18T07:55:48.110Z,2484
2017-11-18T07:56:48.948Z,2600
2017-11-18T07:57:48.351Z,2660
2017-11-18T07:58:48.332Z,2608
2017-11-18T07:59:48.601Z,2596
2017-11-18T08:00:48.305Z,2552
2017-11-18T08:01:48.593Z,2668
2017-11-18T08:02:48.278Z,2708
2017-11-18T08:03:48.258Z,2664
2017-11-18T08:04:47.964Z,2684
2017-11-18T08:05:48.220Z,2636
2017-11-18T08:06:48.485Z,2564
2017-11-18T08:07:48.188Z,2452
2017-11-18T08:08:48.178Z,2436
2017-11-18T08:09:47.881Z,2440
2017-11-18T08:10:48.454Z,2560
2017-11-18T08:11:47.850Z,2688
2017-11-18T08:12:48.519Z,2708
2017-11-18T08:13:48.094Z,2680
2017-11-18T08:14:48.077Z,2776
2017-11-18T08:15:48.091Z,2852
2017-11-18T08:16:48.042Z,2872
2017-11-18T08:17:48.613Z,2696
2017-11-18T08:18:48.286Z,2548
2017-11-18T08:19:48.296Z,2436
2017-11-18T08:20:47.981Z,2460
2017-11-18T08:21:47.703Z,2600
2017-11-18T08:22:47.974Z,2708
2017-11-18T08:23:47.938Z,2800
2017-11-18T08:24:47.936Z,2960
2017-11-18T08:25:47.622Z,2988
2017-11-18T08:26:47.924Z,2936
2017-11-18T08:27:47.869Z,2940
2017-11-18T08:28:48.128Z,2968
2017-11-18T08:29:48.113Z,3012
2017-11-18T08:30:47.819Z,3084
2017-11-18T08:31:48.124Z,3236
2017-11-18T08:32:47.556Z,3312
2017-11-18T08:33:48.047Z,3328
2017-11-18T08:34:47.754Z,3424
2017-11-18T08:35:47.745Z,3568
2017-11-18T08:36:47.734Z,3800
2017-11-18T08:37:47.709Z,3768
2017-11-18T08:38:47.694Z,3848
2017-11-18T08:39:48.017Z,3768
2017-11-18T08:40:47.395Z,3704
2017-11-18T08:41:48.198Z,3680
2017-11-18T08:42:47.373Z,3680
2017-11-18T08:43:47.892Z,3780
2017-11-18T08:44:47.599Z,3860
2017-11-18T08:45:47.869Z,3788
2017-11-18T08:46:48.160Z,3992
2017-11-18T08:47:47.551Z,3956
2017-11-18T08:48:47.259Z,4124
2017-11-18T08:49:47.797Z,4108
2017-11-18T08:50:47.524Z,4080
2017-11-18T08:51:48.096Z,3960
2017-11-18T08:52:47.331Z,3936
2017-11-18T08:53:47.182Z,4048
2017-11-18T08:54:47.165Z,4308
2017-11-18T08:55:47.702Z,4252
2017-11-18T08:56:49.325Z,4108
2017-11-18T08:57:47.993Z,3988
2017-11-18T08:58:47.667Z,4036
2017-11-18T08:59:47.365Z,4220
2017-11-18T09:00:47.072Z,3776
2017-11-18T09:01:47.607Z,3428
2017-11-18T09:02:47.321Z,3108
2017-11-18T09:03:47.854Z,3044
2017-11-18T09:04:47.333Z,3284
2017-11-18T09:05:46.993Z,3532
2017-11-18T09:06:47.252Z,3356
2017-11-18T09:07:47.237Z,3328
2017-11-18T09:08:47.227Z,3600
2017-11-18T09:09:47.483Z,4008
2017-11-18T09:10:47.742Z,3992
2017-11-18T09:11:47.179Z,3948
2017-11-18T09:12:46.880Z,4200
2017-11-18T09:13:46.889Z,4268
2017-11-18T09:14:46.871Z,4092
2017-11-18T09:15:46.854Z,4000
2017-11-18T09:16:47.385Z,3876
2017-11-18T09:17:46.818Z,4056
2017-11-18T09:18:46.790Z,4316
2017-11-18T09:19:47.650Z,4284
2017-11-18T09:20:47.314Z,4452
2017-11-18T09:21:46.800Z,4496
2017-11-18T09:22:47.003Z,4536
2017-11-18T09:23:46.711Z,4272
2017-11-18T09:24:46.705Z,4012
2017-11-18T09:25:46.686Z,3820
2017-11-18T09:26:47.232Z,3964
2017-11-18T09:27:47.198Z,3472
2017-11-18T09:28:46.912Z,2908
2017-11-18T09:29:47.174Z,2804
2017-11-18T09:30:46.907Z,3000
2017-11-18T09:31:46.870Z,2528
2017-11-18T09:32:46.848Z,2416
2017-11-18T09:33:46.831Z,2084
2017-11-18T09:34:46.545Z,2016
2017-11-18T09:35:46.820Z,2260
2017-11-18T09:36:46.523Z,2012
2017-11-18T09:37:46.769Z,2740
2017-11-18T09:38:47.304Z,2904
2017-11-18T09:39:47.019Z,3088
2017-11-18T09:40:46.727Z,4068
2017-11-18T09:41:46.990Z,4200
2017-11-18T09:42:46.698Z,4412
2017-11-18T09:43:46.676Z,4276
2017-11-18T09:44:46.671Z,4032
2017-11-18T09:45:46.644Z,4052
2017-11-18T09:46:46.630Z,4032
2017-11-18T09:47:46.911Z,4044
2017-11-18T09:48:46.605Z,3896
2017-11-18T09:49:46.596Z,3076
2017-11-18T09:50:46.862Z,2756
2017-11-18T09:51:46.277Z,3352
2017-11-18T09:52:46.853Z,3204
2017-11-18T09:53:46.271Z,2448
2017-11-18T09:54:46.234Z,2112
2017-11-18T09:55:46.493Z,3032
2017-11-18T09:56:46.493Z,2236
2017-11-18T09:57:46.484Z,1896
2017-11-18T09:58:46.188Z,3608
2017-11-18T09:59:46.438Z,5520
2017-11-18T10:00:46.439Z,4632
2017-11-18T10:01:46.417Z,4560
2017-11-18T10:02:46.662Z,3852
2017-11-18T10:03:46.376Z,3212
2017-11-18T10:04:46.628Z,3356
2017-11-18T10:05:46.334Z,2912
2017-11-18T10:06:46.336Z,2680
2017-11-18T10:07:46.308Z,2904
2017-11-18T10:08:46.039Z,3192
2017-11-18T10:09:46.554Z,5336
2017-11-18T10:10:46.538Z,4432
2017-11-18T10:11:46.532Z,4808
2017-11-18T10:12:46.240Z,4624
2017-11-18T10:13:46.238Z,3956
2017-11-18T10:14:46.491Z,3252
2017-11-18T10:15:46.182Z,2740
2017-11-18T10:16:46.190Z,2852
2017-11-18T10:17:46.461Z,2500
2017-11-18T10:18:46.139Z,2156
2017-11-18T10:19:46.702Z,2148
2017-11-18T10:20:45.829Z,2912
2017-11-18T10:21:46.093Z,4808
2017-11-18T10:22:46.138Z,5340
2017-11-18T10:23:45.787Z,5168
2017-11-18T10:24:46.349Z,5100
2017-11-18T10:25:46.316Z,5376
2017-11-18T10:26:46.044Z,5176
2017-11-18T10:27:46.289Z,5448
2017-11-18T10:28:45.985Z,5516
2017-11-18T10:29:46.022Z,4720
2017-11-18T10:30:45.983Z,4028
2017-11-18T10:31:46.214Z,4136
2017-11-18T10:32:45.649Z,4660
2017-11-18T10:33:46.186Z,4800
2017-11-18T10:34:45.625Z,5072
2017-11-18T10:35:45.877Z,5396
2017-11-18T10:36:45.607Z,5104
2017-11-18T10:37:45.587Z,5044
2017-11-18T10:38:45.829Z,4320
2017-11-18T10:39:45.540Z,4304
2017-11-18T10:40:45.820Z,5320
2017-11-18T10:41:45.509Z,5244
2017-11-18T10:42:45.783Z,5156
2017-11-18T10:43:45.786Z,4648
2017-11-18T10:44:45.761Z,4512
2017-11-18T10:45:46.005Z,4796
2017-11-18T10:46:45.984Z,5052
2017-11-18T10:47:45.700Z,5176
2017-11-18T10:48:45.677Z,5188
2017-11-18T10:49:45.672Z,4396
2017-11-18T10:50:45.823Z,4288
2017-11-18T10:51:45.376Z,4632
2017-11-18T10:52:45.893Z,4532
2017-11-18T10:53:45.601Z,5044
2017-11-18T10:54:45.590Z,5256
2017-11-18T10:55:45.569Z,5484
2017-11-18T10:56:45.283Z,5884
2017-11-18T10:57:45.814Z,5780
2017-11-18T10:58:45.795Z,5236
2017-11-18T10:59:45.512Z,4776
2017-11-18T11:00:45.785Z,4660
2017-11-18T11:01:45.495Z,4848
2017-11-18T11:02:45.509Z,4888
2017-11-18T11:03:45.455Z,4412
2017-11-18T11:04:45.160Z,3972
2017-11-18T11:05:45.418Z,4484
2017-11-18T11:06:45.689Z,4736
2017-11-18T11:07:45.387Z,3644
2017-11-18T11:09:17.164Z,3232
2017-11-18T11:09:45.356Z,3100
2017-11-18T11:10:45.618Z,3172
2017-11-18T11:12:17.399Z,3428
2017-11-18T11:12:45.330Z,3520
2017-11-18T11:13:45.300Z,3616
2017-11-18T11:14:45.560Z,4016
2017-11-18T11:15:45.559Z,4632
2017-11-18T11:16:45.245Z,3432
2017-11-18T11:17:44.957Z,3020
2017-11-18T11:18:45.504Z,3340
2017-11-18T11:19:45.228Z,4060
2017-11-18T11:21:17.527Z,3908
2017-11-18T11:21:45.172Z,3588
2017-11-18T11:22:45.430Z,3240
2017-11-18T11:23:45.162Z,2940
2017-11-18T11:24:44.861Z,3012
2017-11-18T11:25:45.107Z,2512
2017-11-18T11:26:45.090Z,2072
2017-11-18T11:27:45.003Z,1992
2017-11-18T11:28:45.063Z,1848
2017-11-18T11:29:45.325Z,1872
2017-11-18T11:30:44.766Z,2128
2017-11-18T11:31:45.586Z,2464
2017-11-18T11:32:45.299Z,2924
2017-11-18T11:33:44.984Z,2376
2017-11-18T11:34:44.991Z,1936
2017-11-18T11:35:44.951Z,1992
2017-11-18T11:36:45.210Z,2096
2017-11-18T11:37:44.923Z,2468
2017-11-18T11:38:45.210Z,2084
2017-11-18T11:39:44.638Z,2052
2017-11-18T11:40:44.876Z,2820
2017-11-18T11:41:44.859Z,3164
2017-11-18T11:42:44.865Z,2524
2017-11-18T11:43:44.557Z,2040
2017-11-18T11:44:45.097Z,1660
2017-11-18T11:45:45.073Z,1552
2017-11-18T11:46:44.780Z,1568
2017-11-18T11:47:45.353Z,1380
2017-11-18T11:48:44.782Z,1824
2017-11-18T11:49:45.010Z,2728
2017-11-18T11:50:44.449Z,3040
2017-11-18T11:51:44.718Z,2684
2017-11-18T11:52:44.973Z,2108
2017-11-18T11:53:44.963Z,1868
2017-11-18T11:54:44.376Z,1904
2017-11-18T11:55:44.678Z,2132
2017-11-18T11:56:44.624Z,2992
2017-11-18T11:57:44.606Z,2456
2017-11-18T11:58:44.886Z,2500
2017-11-18T11:59:44.315Z,2536
2017-11-18T12:00:45.107Z,3156
2017-11-18T12:01:44.562Z,3084
2017-11-18T12:02:44.553Z,2892
2017-11-18T12:03:44.510Z,3516
2017-11-18T12:04:44.494Z,3952
2017-11-18T12:05:44.477Z,4292
2017-11-18T12:06:44.185Z,3760
2017-11-18T12:07:44.453Z,3176
2017-11-18T12:08:44.428Z,3000
2017-11-18T12:09:44.143Z,2688
2017-11-18T12:10:44.698Z,2572
2017-11-18T12:11:44.388Z,2632
2017-11-18T12:12:44.367Z,2884
2017-11-18T12:13:44.349Z,2904
2017-11-18T12:14:44.652Z,2560
2017-11-18T12:15:44.350Z,2504
2017-11-18T12:16:44.310Z,2800
2017-11-18T12:17:44.285Z,2800
2017-11-18T12:18:44.559Z,2656
2017-11-18T12:19:44.255Z,2628
2017-11-18T12:20:44.281Z,2356
2017-11-18T12:21:44.223Z,2608
2017-11-18T12:22:44.486Z,2492
2017-11-18T12:23:44.494Z,2468
2017-11-18T12:24:43.897Z,2140
2017-11-18T12:25:44.452Z,2412
2017-11-18T12:26:44.415Z,2548
2017-11-18T12:27:44.123Z,2824
2017-11-18T12:28:44.104Z,3400
2017-11-18T12:29:44.390Z,4320
2017-11-18T12:30:44.094Z,3940
2017-11-18T12:31:44.063Z,3764
2017-11-18T12:32:44.071Z,3248
2017-11-18T12:33:44.318Z,2944
2017-11-18T12:34:43.735Z,3184
2017-11-18T12:35:43.719Z,3300
2017-11-18T12:36:43.724Z,3564
2017-11-18T12:37:43.958Z,2888
2017-11-18T12:38:43.950Z,2516
2017-11-18T12:39:43.930Z,2416
2017-11-18T12:40:43.641Z,2188
2017-11-18T12:41:43.620Z,1852
2017-11-18T12:42:43.882Z,2064
2017-11-18T12:43:44.149Z,1592
2017-11-18T12:44:43.593Z,1456
2017-11-18T12:45:43.834Z,1416
2017-11-18T12:46:43.825Z,1364
2017-11-18T12:47:43.801Z,1604
2017-11-18T12:48:44.068Z,2188
2017-11-18T12:49:43.773Z,2408
2017-11-18T12:50:43.753Z,3116
2017-11-18T12:51:43.459Z,3432
2017-11-18T12:52:43.720Z,2972
2017-11-18T12:53:44.264Z,2364
2017-11-18T12:54:43.412Z,2004
2017-11-18T12:55:43.396Z,1676
2017-11-18T12:56:43.654Z,2044
2017-11-18T12:57:43.643Z,1896
2017-11-18T12:58:43.627Z,1748
2017-11-18T12:59:43.886Z,1672
2017-11-18T13:00:43.876Z,1480
2017-11-18T13:01:43.575Z,2264
2017-11-18T13:02:43.304Z,3760
2017-11-18T13:03:43.548Z,3944
2017-11-18T13:04:43.530Z,4016
2017-11-18T13:05:43.523Z,3704
2017-11-18T13:06:43.498Z,3040
2017-11-18T13:07:43.205Z,3032
2017-11-18T13:08:43.737Z,2768
2017-11-18T13:09:43.727Z,2692
2017-11-18T13:10:43.157Z,2548
2017-11-18T13:11:43.166Z,2596
2017-11-18T13:12:43.397Z,2664
2017-11-18T13:13:43.956Z,2300
2017-11-18T13:14:43.937Z,2024
2017-11-18T13:15:43.628Z,2032
2017-11-18T13:16:43.633Z,2004
2017-11-18T13:17:43.046Z,1968
2017-11-18T13:18:43.029Z,1824
2017-11-18T13:19:43.576Z,1680
2017-11-18T13:20:43.576Z,1556
2017-11-18T13:21:43.550Z,1392
2017-11-18T13:22:42.974Z,1008
2017-11-18T13:23:42.959Z,1108
2017-11-18T13:24:42.933Z,1316
2017-11-18T13:25:43.190Z,1152
2017-11-18T13:26:43.452Z,836
2017-11-18T13:27:42.902Z,828
2017-11-18T13:28:42.866Z,596
2017-11-18T13:29:43.406Z,540
2017-11-18T13:30:43.408Z,528
2017-11-18T13:31:42.818Z,680
2017-11-18T13:32:43.088Z,508
2017-11-18T13:33:42.810Z,472
2017-11-18T13:34:42.783Z,416
2017-11-18T13:35:43.319Z,376
2017-11-18T13:36:43.015Z,380
2017-11-18T13:37:43.003Z,396
2017-11-18T13:38:42.706Z,416
2017-11-18T13:39:42.976Z,396
2017-11-18T13:40:43.514Z,448
2017-11-18T13:41:42.934Z,624
2017-11-18T13:42:43.219Z,932
2017-11-18T13:43:42.900Z,1224
2017-11-18T13:44:43.480Z,1732
2017-11-18T13:45:42.864Z,1520
2017-11-18T13:46:42.850Z,1332
2017-11-18T13:47:42.835Z,1744
2017-11-18T13:48:42.819Z,1804
2017-11-18T13:49:43.080Z,1508
2017-11-18T13:50:42.786Z,1308
2017-11-18T13:51:42.780Z,1352
2017-11-18T13:52:42.475Z,1316
2017-11-18T13:53:42.755Z,1140
2017-11-18T13:54:43.019Z,1644
2017-11-18T13:55:42.426Z,1856
2017-11-18T13:56:42.966Z,1984
2017-11-18T13:57:42.945Z,1916
2017-11-18T13:58:42.677Z,1984